sensor_id;sensor_type;location;lat;lon;timestamp;temperature;humidity
3923;DHT22;1976;51.694;6.256;2022-09-06T00:00:34;23.30;94.50
3923;DHT22;1976;51.694;6.256;2022-09-06T00:03:00;23.30;94.70
3923;DHT22;1976;51.694;6.256;2022-09-06T00:05:29;23.20;94.80
3923;DHT22;1976;51.694;6.256;2022-09-06T00:08:00;23.20;94.90
3923;DHT22;1976;51.694;6.256;2022-09-06T00:10:27;23.10;95.10
3923;DHT22;1976;51.694;6.256;2022-09-06T00:12:52;23.10;95.20
3923;DHT22;1976;51.694;6.256;2022-09-06T00:15:19;23.10;95.30
3923;DHT22;1976;51.694;6.256;2022-09-06T00:17:45;23.10;95.40
3923;DHT22;1976;51.694;6.256;2022-09-06T00:20:11;23.10;95.60
3923;DHT22;1976;51.694;6.256;2022-09-06T00:22:37;23.10;95.60
3923;DHT22;1976;51.694;6.256;2022-09-06T00:27:30;23.10;95.70
3923;DHT22;1976;51.694;6.256;2022-09-06T00:29:56;23.10;95.80
3923;DHT22;1976;51.694;6.256;2022-09-06T00:32:22;23.10;95.80
3923;DHT22;1976;51.694;6.256;2022-09-06T00:34:48;23.10;95.90
3923;DHT22;1976;51.694;6.256;2022-09-06T00:37:13;23.10;96.00
3923;DHT22;1976;51.694;6.256;2022-09-06T00:39:39;23.10;96.00
3923;DHT22;1976;51.694;6.256;2022-09-06T00:42:09;23.10;96.00
3923;DHT22;1976;51.694;6.256;2022-09-06T00:44:35;23.10;96.10
3923;DHT22;1976;51.694;6.256;2022-09-06T00:47:01;23.10;96.20
3923;DHT22;1976;51.694;6.256;2022-09-06T00:49:40;23.10;96.30
3923;DHT22;1976;51.694;6.256;2022-09-06T00:52:10;23.10;96.40
3923;DHT22;1976;51.694;6.256;2022-09-06T00:54:36;23.10;96.60
3923;DHT22;1976;51.694;6.256;2022-09-06T00:57:03;23.10;97.00
3923;DHT22;1976;51.694;6.256;2022-09-06T00:59:31;23.10;97.20
3923;DHT22;1976;51.694;6.256;2022-09-06T01:01:58;22.80;97.60
3923;DHT22;1976;51.694;6.256;2022-09-06T01:04:25;22.60;98.00
3923;DHT22;1976;51.694;6.256;2022-09-06T01:15:06;22.20;98.80
3923;DHT22;1976;51.694;6.256;2022-09-06T01:28:38;21.40;99.90
3923;DHT22;1976;51.694;6.256;2022-09-06T01:36:08;21.40;99.90
3923;DHT22;1976;51.694;6.256;2022-09-06T01:38:35;21.40;99.90
3923;DHT22;1976;51.694;6.256;2022-09-06T01:41:01;21.30;99.90
3923;DHT22;1976;51.694;6.256;2022-09-06T01:43:30;21.00;99.90
3923;DHT22;1976;51.694;6.256;2022-09-06T01:46:14;20.90;99.90
3923;DHT22;1976;51.694;6.256;2022-09-06T01:48:57;20.60;99.90
3923;DHT22;1976;51.694;6.256;2022-09-06T01:51:32;20.20;99.90
3923;DHT22;1976;51.694;6.256;2022-09-06T01:57:36;20.00;99.90
3923;DHT22;1976;51.694;6.256;2022-09-06T02:00:06;19.80;99.90
3923;DHT22;1976;51.694;6.256;2022-09-06T02:03:08;19.80;99.90
3923;DHT22;1976;51.694;6.256;2022-09-06T02:05:43;19.70;99.90
3923;DHT22;1976;51.694;6.256;2022-09-06T02:08:32;19.70;99.90
3923;DHT22;1976;51.694;6.256;2022-09-06T02:11:01;19.70;99.90
3923;DHT22;1976;51.694;6.256;2022-09-06T02:13:38;19.70;99.90
3923;DHT22;1976;51.694;6.256;2022-09-06T02:16:06;19.70;99.90
3923;DHT22;1976;51.694;6.256;2022-09-06T02:18:39;19.60;99.90
3923;DHT22;1976;51.694;6.256;2022-09-06T02:21:09;19.60;99.90
3923;DHT22;1976;51.694;6.256;2022-09-06T02:23:39;19.60;99.90
3923;DHT22;1976;51.694;6.256;2022-09-06T02:26:20;19.50;99.90
3923;DHT22;1976;51.694;6.256;2022-09-06T02:28:47;19.60;99.90
3923;DHT22;1976;51.694;6.256;2022-09-06T02:31:44;19.60;99.90
3923;DHT22;1976;51.694;6.256;2022-09-06T02:34:14;19.60;99.90
3923;DHT22;1976;51.694;6.256;2022-09-06T02:36:41;19.70;99.90
3923;DHT22;1976;51.694;6.256;2022-09-06T02:39:07;19.70;99.90
3923;DHT22;1976;51.694;6.256;2022-09-06T02:41:33;19.80;99.90
3923;DHT22;1976;51.694;6.256;2022-09-06T02:43:59;19.80;99.90
3923;DHT22;1976;51.694;6.256;2022-09-06T02:46:25;19.70;99.90
3923;DHT22;1976;51.694;6.256;2022-09-06T02:48:50;19.70;99.90
3923;DHT22;1976;51.694;6.256;2022-09-06T02:51:16;19.70;99.90
3923;DHT22;1976;51.694;6.256;2022-09-06T02:53:42;19.70;99.90
3923;DHT22;1976;51.694;6.256;2022-09-06T02:56:08;19.60;99.90
3923;DHT22;1976;51.694;6.256;2022-09-06T02:58:34;19.60;99.90
3923;DHT22;1976;51.694;6.256;2022-09-06T03:01:00;19.60;99.90
3923;DHT22;1976;51.694;6.256;2022-09-06T03:03:26;19.70;99.90
3923;DHT22;1976;51.694;6.256;2022-09-06T03:05:53;19.80;99.90
3923;DHT22;1976;51.694;6.256;2022-09-06T03:08:20;19.80;99.90
3923;DHT22;1976;51.694;6.256;2022-09-06T03:10:54;19.80;99.90
3923;DHT22;1976;51.694;6.256;2022-09-06T03:13:21;19.80;99.90
3923;DHT22;1976;51.694;6.256;2022-09-06T03:15:52;19.90;99.90
3923;DHT22;1976;51.694;6.256;2022-09-06T03:18:18;19.80;99.90
3923;DHT22;1976;51.694;6.256;2022-09-06T03:20:44;19.90;99.90
3923;DHT22;1976;51.694;6.256;2022-09-06T03:23:09;19.80;99.90
3923;DHT22;1976;51.694;6.256;2022-09-06T03:25:35;19.80;99.90
3923;DHT22;1976;51.694;6.256;2022-09-06T03:28:01;19.70;99.90
3923;DHT22;1976;51.694;6.256;2022-09-06T03:30:27;19.70;99.90
3923;DHT22;1976;51.694;6.256;2022-09-06T03:32:52;19.60;99.90
3923;DHT22;1976;51.694;6.256;2022-09-06T03:35:18;19.60;99.90
3923;DHT22;1976;51.694;6.256;2022-09-06T03:37:44;19.60;99.90
3923;DHT22;1976;51.694;6.256;2022-09-06T03:40:10;19.60;99.90
3923;DHT22;1976;51.694;6.256;2022-09-06T03:42:35;19.50;99.90
3923;DHT22;1976;51.694;6.256;2022-09-06T03:45:01;19.60;99.90
3923;DHT22;1976;51.694;6.256;2022-09-06T03:47:27;19.60;99.90
3923;DHT22;1976;51.694;6.256;2022-09-06T03:49:52;19.70;99.90
3923;DHT22;1976;51.694;6.256;2022-09-06T03:52:18;19.70;99.90
3923;DHT22;1976;51.694;6.256;2022-09-06T03:57:10;19.70;99.90
3923;DHT22;1976;51.694;6.256;2022-09-06T03:59:35;19.70;99.90
3923;DHT22;1976;51.694;6.256;2022-09-06T04:02:02;19.80;99.90
3923;DHT22;1976;51.694;6.256;2022-09-06T04:04:27;19.80;99.90
3923;DHT22;1976;51.694;6.256;2022-09-06T04:06:53;19.80;99.90
3923;DHT22;1976;51.694;6.256;2022-09-06T04:09:19;19.90;99.90
3923;DHT22;1976;51.694;6.256;2022-09-06T04:11:44;19.90;99.90
3923;DHT22;1976;51.694;6.256;2022-09-06T04:14:10;20.00;99.90
3923;DHT22;1976;51.694;6.256;2022-09-06T04:16:35;20.00;99.90
3923;DHT22;1976;51.694;6.256;2022-09-06T04:19:01;19.90;99.90
3923;DHT22;1976;51.694;6.256;2022-09-06T04:21:28;19.80;99.90
3923;DHT22;1976;51.694;6.256;2022-09-06T04:23:54;19.90;99.90
3923;DHT22;1976;51.694;6.256;2022-09-06T04:26:20;19.90;99.90
3923;DHT22;1976;51.694;6.256;2022-09-06T04:28:45;20.00;99.90
3923;DHT22;1976;51.694;6.256;2022-09-06T04:31:11;20.00;99.90
3923;DHT22;1976;51.694;6.256;2022-09-06T04:33:37;20.70;99.90
3923;DHT22;1976;51.694;6.256;2022-09-06T04:36:08;20.00;99.90
3923;DHT22;1976;51.694;6.256;2022-09-06T04:38:37;20.00;99.90
3923;DHT22;1976;51.694;6.256;2022-09-06T04:41:04;20.00;99.90
3923;DHT22;1976;51.694;6.256;2022-09-06T04:43:30;20.00;99.90
3923;DHT22;1976;51.694;6.256;2022-09-06T04:46:00;20.10;99.90
3923;DHT22;1976;51.694;6.256;2022-09-06T04:48:26;20.10;99.90
3923;DHT22;1976;51.694;6.256;2022-09-06T04:50:52;20.10;99.90
3923;DHT22;1976;51.694;6.256;2022-09-06T04:55:43;20.00;99.90
3923;DHT22;1976;51.694;6.256;2022-09-06T04:58:09;19.90;99.90
3923;DHT22;1976;51.694;6.256;2022-09-06T05:00:35;19.90;99.90
3923;DHT22;1976;51.694;6.256;2022-09-06T05:03:02;19.80;99.90
3923;DHT22;1976;51.694;6.256;2022-09-06T05:05:28;19.80;99.90
3923;DHT22;1976;51.694;6.256;2022-09-06T05:07:55;19.80;99.90
3923;DHT22;1976;51.694;6.256;2022-09-06T05:10:21;19.70;99.90
3923;DHT22;1976;51.694;6.256;2022-09-06T05:12:48;19.70;99.90
3923;DHT22;1976;51.694;6.256;2022-09-06T05:15:15;19.60;99.90
3923;DHT22;1976;51.694;6.256;2022-09-06T05:17:41;19.60;99.90
3923;DHT22;1976;51.694;6.256;2022-09-06T05:20:08;19.50;99.90
3923;DHT22;1976;51.694;6.256;2022-09-06T05:22:35;19.50;99.90
3923;DHT22;1976;51.694;6.256;2022-09-06T05:25:01;19.40;99.90
3923;DHT22;1976;51.694;6.256;2022-09-06T05:27:26;19.30;99.90
3923;DHT22;1976;51.694;6.256;2022-09-06T05:29:52;19.20;99.90
3923;DHT22;1976;51.694;6.256;2022-09-06T05:32:18;19.20;99.90
3923;DHT22;1976;51.694;6.256;2022-09-06T05:34:43;19.20;99.90
3923;DHT22;1976;51.694;6.256;2022-09-06T05:37:09;19.10;99.90
3923;DHT22;1976;51.694;6.256;2022-09-06T05:39:35;19.00;99.90
3923;DHT22;1976;51.694;6.256;2022-09-06T05:42:00;19.00;99.90
3923;DHT22;1976;51.694;6.256;2022-09-06T05:44:37;19.00;99.90
3923;DHT22;1976;51.694;6.256;2022-09-06T05:47:03;19.00;99.90
3923;DHT22;1976;51.694;6.256;2022-09-06T05:49:30;19.10;99.90
3923;DHT22;1976;51.694;6.256;2022-09-06T05:51:56;19.10;99.90
3923;DHT22;1976;51.694;6.256;2022-09-06T05:54:22;19.10;99.90
3923;DHT22;1976;51.694;6.256;2022-09-06T05:56:48;19.10;99.90
3923;DHT22;1976;51.694;6.256;2022-09-06T05:59:14;19.00;99.90
3923;DHT22;1976;51.694;6.256;2022-09-06T06:01:47;19.00;99.90
3923;DHT22;1976;51.694;6.256;2022-09-06T06:04:14;19.00;99.90
3923;DHT22;1976;51.694;6.256;2022-09-06T06:06:39;19.00;99.90
3923;DHT22;1976;51.694;6.256;2022-09-06T06:09:05;19.10;99.90
3923;DHT22;1976;51.694;6.256;2022-09-06T06:11:31;19.10;99.90
3923;DHT22;1976;51.694;6.256;2022-09-06T06:13:57;19.20;99.90
3923;DHT22;1976;51.694;6.256;2022-09-06T06:16:23;19.30;99.90
3923;DHT22;1976;51.694;6.256;2022-09-06T06:18:49;19.30;99.90
3923;DHT22;1976;51.694;6.256;2022-09-06T06:21:18;19.40;99.90
3923;DHT22;1976;51.694;6.256;2022-09-06T06:23:45;19.40;99.90
3923;DHT22;1976;51.694;6.256;2022-09-06T06:26:12;19.50;99.90
3923;DHT22;1976;51.694;6.256;2022-09-06T06:28:38;19.60;99.90
3923;DHT22;1976;51.694;6.256;2022-09-06T06:33:31;19.70;99.90
3923;DHT22;1976;51.694;6.256;2022-09-06T06:35:59;19.80;99.90
3923;DHT22;1976;51.694;6.256;2022-09-06T06:38:36;19.80;99.90
3923;DHT22;1976;51.694;6.256;2022-09-06T06:41:04;19.80;99.90
3923;DHT22;1976;51.694;6.256;2022-09-06T06:43:30;19.90;99.90
3923;DHT22;1976;51.694;6.256;2022-09-06T06:46:09;20.00;99.90
3923;DHT22;1976;51.694;6.256;2022-09-06T06:48:37;20.10;99.90
3923;DHT22;1976;51.694;6.256;2022-09-06T06:51:05;20.20;99.90
3923;DHT22;1976;51.694;6.256;2022-09-06T06:53:31;20.20;99.90
3923;DHT22;1976;51.694;6.256;2022-09-06T06:55:57;20.30;99.90
3923;DHT22;1976;51.694;6.256;2022-09-06T06:58:23;20.30;99.90
3923;DHT22;1976;51.694;6.256;2022-09-06T07:00:49;20.40;99.90
3923;DHT22;1976;51.694;6.256;2022-09-06T07:03:15;20.50;99.90
3923;DHT22;1976;51.694;6.256;2022-09-06T07:05:40;20.60;99.90
3923;DHT22;1976;51.694;6.256;2022-09-06T07:08:11;20.60;99.90
3923;DHT22;1976;51.694;6.256;2022-09-06T07:10:37;20.70;99.90
3923;DHT22;1976;51.694;6.256;2022-09-06T07:13:03;20.80;99.90
3923;DHT22;1976;51.694;6.256;2022-09-06T07:15:29;21.00;99.90
3923;DHT22;1976;51.694;6.256;2022-09-06T07:17:55;21.20;99.90
3923;DHT22;1976;51.694;6.256;2022-09-06T07:20:22;21.20;99.90
3923;DHT22;1976;51.694;6.256;2022-09-06T07:23:00;21.30;99.90
3923;DHT22;1976;51.694;6.256;2022-09-06T07:25:26;21.30;99.90
3923;DHT22;1976;51.694;6.256;2022-09-06T07:27:59;21.50;99.90
3923;DHT22;1976;51.694;6.256;2022-09-06T07:30:27;21.60;99.90
3923;DHT22;1976;51.694;6.256;2022-09-06T07:32:54;21.70;99.90
3923;DHT22;1976;51.694;6.256;2022-09-06T07:35:20;21.70;99.90
3923;DHT22;1976;51.694;6.256;2022-09-06T07:37:56;21.90;99.90
3923;DHT22;1976;51.694;6.256;2022-09-06T07:40:23;22.00;99.90
3923;DHT22;1976;51.694;6.256;2022-09-06T07:42:51;22.00;99.90
3923;DHT22;1976;51.694;6.256;2022-09-06T07:45:17;22.20;99.90
3923;DHT22;1976;51.694;6.256;2022-09-06T07:47:43;22.30;99.90
3923;DHT22;1976;51.694;6.256;2022-09-06T07:50:09;22.40;99.90
3923;DHT22;1976;51.694;6.256;2022-09-06T07:52:35;22.50;99.90
3923;DHT22;1976;51.694;6.256;2022-09-06T07:55:00;22.60;99.90
3923;DHT22;1976;51.694;6.256;2022-09-06T07:57:26;22.70;99.90
3923;DHT22;1976;51.694;6.256;2022-09-06T07:59:51;22.80;99.90
3923;DHT22;1976;51.694;6.256;2022-09-06T08:02:17;22.90;99.90
3923;DHT22;1976;51.694;6.256;2022-09-06T08:04:43;23.10;99.90
3923;DHT22;1976;51.694;6.256;2022-09-06T08:07:09;23.10;99.90
3923;DHT22;1976;51.694;6.256;2022-09-06T08:09:35;23.30;99.90
3923;DHT22;1976;51.694;6.256;2022-09-06T08:12:02;23.30;99.90
3923;DHT22;1976;51.694;6.256;2022-09-06T08:14:31;23.50;99.90
3923;DHT22;1976;51.694;6.256;2022-09-06T08:16:57;23.70;99.90
3923;DHT22;1976;51.694;6.256;2022-09-06T08:19:23;23.60;99.90
3923;DHT22;1976;51.694;6.256;2022-09-06T08:21:49;23.60;99.90
3923;DHT22;1976;51.694;6.256;2022-09-06T08:24:15;23.90;99.90
3923;DHT22;1976;51.694;6.256;2022-09-06T08:26:40;24.00;99.90
3923;DHT22;1976;51.694;6.256;2022-09-06T08:29:10;24.20;99.90
3923;DHT22;1976;51.694;6.256;2022-09-06T08:31:39;24.40;99.90
3923;DHT22;1976;51.694;6.256;2022-09-06T08:34:05;24.80;99.10
3923;DHT22;1976;51.694;6.256;2022-09-06T08:36:31;25.10;98.90
3923;DHT22;1976;51.694;6.256;2022-09-06T08:39:03;25.10;97.70
3923;DHT22;1976;51.694;6.256;2022-09-06T08:44:14;25.60;96.70
3923;DHT22;1976;51.694;6.256;2022-09-06T08:49:22;26.20;95.60
3923;DHT22;1976;51.694;6.256;2022-09-06T08:54:23;27.00;93.80
3923;DHT22;1976;51.694;6.256;2022-09-06T08:57:14;27.50;93.60
3923;DHT22;1976;51.694;6.256;2022-09-06T08:59:44;28.70;91.80
3923;DHT22;1976;51.694;6.256;2022-09-06T09:02:16;29.70;90.40
3923;DHT22;1976;51.694;6.256;2022-09-06T09:04:52;30.10;87.80
3923;DHT22;1976;51.694;6.256;2022-09-06T09:07:43;30.80;82.60
3923;DHT22;1976;51.694;6.256;2022-09-06T09:10:38;31.60;80.10
3923;DHT22;1976;51.694;6.256;2022-09-06T09:13:07;32.50;78.50
3923;DHT22;1976;51.694;6.256;2022-09-06T09:15:35;33.10;74.80
3923;DHT22;1976;51.694;6.256;2022-09-06T09:18:02;33.80;71.70
3923;DHT22;1976;51.694;6.256;2022-09-06T09:20:28;34.00;71.20
3923;DHT22;1976;51.694;6.256;2022-09-06T09:22:54;34.50;68.00
3923;DHT22;1976;51.694;6.256;2022-09-06T09:25:23;34.30;66.60
3923;DHT22;1976;51.694;6.256;2022-09-06T09:27:51;34.50;66.30
3923;DHT22;1976;51.694;6.256;2022-09-06T09:30:24;34.60;65.80
3923;DHT22;1976;51.694;6.256;2022-09-06T09:32:50;35.00;65.40
3923;DHT22;1976;51.694;6.256;2022-09-06T09:35:36;35.10;63.40
3923;DHT22;1976;51.694;6.256;2022-09-06T09:38:09;34.90;62.20
3923;DHT22;1976;51.694;6.256;2022-09-06T09:41:00;35.50;63.50
3923;DHT22;1976;51.694;6.256;2022-09-06T09:43:36;37.00;59.90
3923;DHT22;1976;51.694;6.256;2022-09-06T09:46:31;37.00;58.30
3923;DHT22;1976;51.694;6.256;2022-09-06T09:49:09;37.60;56.60
3923;DHT22;1976;51.694;6.256;2022-09-06T09:51:48;37.10;56.70
3923;DHT22;1976;51.694;6.256;2022-09-06T09:54:34;37.10;56.80
3923;DHT22;1976;51.694;6.256;2022-09-06T09:57:00;37.50;55.40
3923;DHT22;1976;51.694;6.256;2022-09-06T09:59:30;37.60;56.30
3923;DHT22;1976;51.694;6.256;2022-09-06T10:01:59;38.20;55.40
3923;DHT22;1976;51.694;6.256;2022-09-06T10:04:42;39.90;51.00
3923;DHT22;1976;51.694;6.256;2022-09-06T10:07:29;40.70;48.90
3923;DHT22;1976;51.694;6.256;2022-09-06T10:10:04;40.90;49.30
3923;DHT22;1976;51.694;6.256;2022-09-06T10:12:33;42.90;45.20
3923;DHT22;1976;51.694;6.256;2022-09-06T10:14:59;44.00;43.30
3923;DHT22;1976;51.694;6.256;2022-09-06T10:17:48;44.10;41.40
3923;DHT22;1976;51.694;6.256;2022-09-06T10:20:14;43.30;40.70
3923;DHT22;1976;51.694;6.256;2022-09-06T10:23:06;43.30;41.20
3923;DHT22;1976;51.694;6.256;2022-09-06T10:26:04;44.10;40.00
3923;DHT22;1976;51.694;6.256;2022-09-06T10:28:37;44.30;40.10
3923;DHT22;1976;51.694;6.256;2022-09-06T10:31:44;45.40;38.80
3923;DHT22;1976;51.694;6.256;2022-09-06T10:40:05;42.10;38.50
3923;DHT22;1976;51.694;6.256;2022-09-06T10:42:51;42.40;38.50
3923;DHT22;1976;51.694;6.256;2022-09-06T10:50:58;45.80;35.10
3923;DHT22;1976;51.694;6.256;2022-09-06T10:56:53;45.40;35.80
3923;DHT22;1976;51.694;6.256;2022-09-06T10:59:34;44.30;35.70
3923;DHT22;1976;51.694;6.256;2022-09-06T11:02:34;44.30;36.40
3923;DHT22;1976;51.694;6.256;2022-09-06T11:05:12;44.60;35.40
3923;DHT22;1976;51.694;6.256;2022-09-06T11:07:42;44.50;34.00
3923;DHT22;1976;51.694;6.256;2022-09-06T11:10:29;43.10;34.90
3923;DHT22;1976;51.694;6.256;2022-09-06T11:13:14;42.90;35.20
3923;DHT22;1976;51.694;6.256;2022-09-06T11:16:07;43.40;35.30
3923;DHT22;1976;51.694;6.256;2022-09-06T11:18:47;44.70;34.70
3923;DHT22;1976;51.694;6.256;2022-09-06T11:34:24;43.70;35.60
3923;DHT22;1976;51.694;6.256;2022-09-06T11:36:54;44.10;35.10
3923;DHT22;1976;51.694;6.256;2022-09-06T11:41:58;43.70;35.10
3923;DHT22;1976;51.694;6.256;2022-09-06T12:00:44;41.50;37.70
3923;DHT22;1976;51.694;6.256;2022-09-06T12:06:20;43.20;37.70
3923;DHT22;1976;51.694;6.256;2022-09-06T12:08:47;43.40;37.40
3923;DHT22;1976;51.694;6.256;2022-09-06T12:11:21;43.80;36.10
3923;DHT22;1976;51.694;6.256;2022-09-06T12:19:45;43.40;37.00
3923;DHT22;1976;51.694;6.256;2022-09-06T12:28:04;44.70;35.40
3923;DHT22;1976;51.694;6.256;2022-09-06T12:30:38;44.60;36.10
3923;DHT22;1976;51.694;6.256;2022-09-06T12:33:12;45.20;34.30
3923;DHT22;1976;51.694;6.256;2022-09-06T12:35:39;45.30;34.80
3923;DHT22;1976;51.694;6.256;2022-09-06T12:38:08;44.40;34.70
3923;DHT22;1976;51.694;6.256;2022-09-06T12:40:44;44.40;35.20
3923;DHT22;1976;51.694;6.256;2022-09-06T12:43:14;44.10;35.40
3923;DHT22;1976;51.694;6.256;2022-09-06T12:45:43;43.90;36.10
3923;DHT22;1976;51.694;6.256;2022-09-06T12:48:11;44.50;34.90
3923;DHT22;1976;51.694;6.256;2022-09-06T12:50:38;43.70;35.90
3923;DHT22;1976;51.694;6.256;2022-09-06T12:53:17;43.60;36.70
3923;DHT22;1976;51.694;6.256;2022-09-06T12:55:45;44.20;35.10
3923;DHT22;1976;51.694;6.256;2022-09-06T12:58:11;44.50;35.70
3923;DHT22;1976;51.694;6.256;2022-09-06T13:00:43;46.00;33.90
3923;DHT22;1976;51.694;6.256;2022-09-06T13:03:44;46.60;33.70
3923;DHT22;1976;51.694;6.256;2022-09-06T13:06:17;47.70;32.80
3923;DHT22;1976;51.694;6.256;2022-09-06T13:08:55;48.30;30.70
3923;DHT22;1976;51.694;6.256;2022-09-06T13:11:27;48.00;30.90
3923;DHT22;1976;51.694;6.256;2022-09-06T13:13:56;48.40;30.90
3923;DHT22;1976;51.694;6.256;2022-09-06T13:16:27;49.20;30.30
3923;DHT22;1976;51.694;6.256;2022-09-06T13:18:54;48.90;29.40
3923;DHT22;1976;51.694;6.256;2022-09-06T13:21:34;48.00;29.40
3923;DHT22;1976;51.694;6.256;2022-09-06T13:24:23;47.50;29.80
3923;DHT22;1976;51.694;6.256;2022-09-06T13:26:50;47.10;30.20
3923;DHT22;1976;51.694;6.256;2022-09-06T13:31:46;46.40;29.70
3923;DHT22;1976;51.694;6.256;2022-09-06T13:34:23;45.60;31.80
3923;DHT22;1976;51.694;6.256;2022-09-06T13:36:51;45.50;30.70
3923;DHT22;1976;51.694;6.256;2022-09-06T13:39:41;45.10;31.70
3923;DHT22;1976;51.694;6.256;2022-09-06T13:44:48;44.90;31.00
3923;DHT22;1976;51.694;6.256;2022-09-06T13:47:13;45.50;31.40
3923;DHT22;1976;51.694;6.256;2022-09-06T13:49:39;45.70;32.00
3923;DHT22;1976;51.694;6.256;2022-09-06T13:52:05;46.40;29.00
3923;DHT22;1976;51.694;6.256;2022-09-06T13:54:32;46.60;28.70
3923;DHT22;1976;51.694;6.256;2022-09-06T13:56:59;46.40;28.00
3923;DHT22;1976;51.694;6.256;2022-09-06T13:59:26;45.60;28.50
3923;DHT22;1976;51.694;6.256;2022-09-06T14:02:00;45.50;29.20
3923;DHT22;1976;51.694;6.256;2022-09-06T14:04:26;45.80;28.80
3923;DHT22;1976;51.694;6.256;2022-09-06T14:06:52;46.10;28.00
3923;DHT22;1976;51.694;6.256;2022-09-06T14:09:18;46.60;26.80
3923;DHT22;1976;51.694;6.256;2022-09-06T14:11:44;46.70;27.20
3923;DHT22;1976;51.694;6.256;2022-09-06T14:14:10;47.10;27.30
3923;DHT22;1976;51.694;6.256;2022-09-06T14:19:03;47.20;26.70
3923;DHT22;1976;51.694;6.256;2022-09-06T14:21:30;47.40;27.00
3923;DHT22;1976;51.694;6.256;2022-09-06T14:23:56;47.70;26.80
3923;DHT22;1976;51.694;6.256;2022-09-06T14:26:22;48.30;27.20
3923;DHT22;1976;51.694;6.256;2022-09-06T14:28:49;48.30;27.60
3923;DHT22;1976;51.694;6.256;2022-09-06T14:31:16;47.80;26.40
3923;DHT22;1976;51.694;6.256;2022-09-06T14:33:42;46.90;26.30
3923;DHT22;1976;51.694;6.256;2022-09-06T14:36:10;45.90;26.70
3923;DHT22;1976;51.694;6.256;2022-09-06T14:38:37;45.40;26.50
3923;DHT22;1976;51.694;6.256;2022-09-06T14:41:05;44.90;26.60
3923;DHT22;1976;51.694;6.256;2022-09-06T14:43:31;44.90;26.70
3923;DHT22;1976;51.694;6.256;2022-09-06T14:46:08;44.80;27.20
3923;DHT22;1976;51.694;6.256;2022-09-06T14:48:35;44.60;27.40
3923;DHT22;1976;51.694;6.256;2022-09-06T14:51:18;45.10;27.50
3923;DHT22;1976;51.694;6.256;2022-09-06T14:53:47;44.80;27.40
3923;DHT22;1976;51.694;6.256;2022-09-06T14:56:13;44.20;27.70
3923;DHT22;1976;51.694;6.256;2022-09-06T14:58:40;43.90;28.30
3923;DHT22;1976;51.694;6.256;2022-09-06T15:01:15;43.80;28.30
3923;DHT22;1976;51.694;6.256;2022-09-06T15:03:42;43.90;28.80
3923;DHT22;1976;51.694;6.256;2022-09-06T15:06:09;44.10;28.40
3923;DHT22;1976;51.694;6.256;2022-09-06T15:08:36;44.20;28.30
3923;DHT22;1976;51.694;6.256;2022-09-06T15:11:02;44.40;28.20
3923;DHT22;1976;51.694;6.256;2022-09-06T15:13:29;44.50;27.70
3923;DHT22;1976;51.694;6.256;2022-09-06T15:15:55;44.50;27.50
3923;DHT22;1976;51.694;6.256;2022-09-06T15:18:21;44.40;28.40
3923;DHT22;1976;51.694;6.256;2022-09-06T15:20:48;44.10;28.70
3923;DHT22;1976;51.694;6.256;2022-09-06T15:23:14;44.00;28.20
3923;DHT22;1976;51.694;6.256;2022-09-06T15:25:50;43.80;28.40
3923;DHT22;1976;51.694;6.256;2022-09-06T15:28:17;44.00;28.00
3923;DHT22;1976;51.694;6.256;2022-09-06T15:30:45;44.00;28.50
3923;DHT22;1976;51.694;6.256;2022-09-06T15:33:11;44.00;29.00
3923;DHT22;1976;51.694;6.256;2022-09-06T15:35:42;43.70;28.80
3923;DHT22;1976;51.694;6.256;2022-09-06T15:38:10;43.50;28.70
3923;DHT22;1976;51.694;6.256;2022-09-06T15:40:36;43.00;28.10
3923;DHT22;1976;51.694;6.256;2022-09-06T15:43:02;42.70;28.10
3923;DHT22;1976;51.694;6.256;2022-09-06T15:45:28;42.70;28.40
3923;DHT22;1976;51.694;6.256;2022-09-06T15:47:54;42.60;28.50
3923;DHT22;1976;51.694;6.256;2022-09-06T15:50:21;42.60;28.60
3923;DHT22;1976;51.694;6.256;2022-09-06T15:52:48;42.60;28.80
3923;DHT22;1976;51.694;6.256;2022-09-06T15:55:14;42.70;28.40
3923;DHT22;1976;51.694;6.256;2022-09-06T15:57:58;42.70;28.00
3923;DHT22;1976;51.694;6.256;2022-09-06T16:00:24;42.70;28.20
3923;DHT22;1976;51.694;6.256;2022-09-06T16:02:49;42.70;28.00
3923;DHT22;1976;51.694;6.256;2022-09-06T16:05:17;42.50;28.80
3923;DHT22;1976;51.694;6.256;2022-09-06T16:07:42;42.20;29.00
3923;DHT22;1976;51.694;6.256;2022-09-06T16:10:10;42.00;28.30
3923;DHT22;1976;51.694;6.256;2022-09-06T16:12:37;41.40;29.60
3923;DHT22;1976;51.694;6.256;2022-09-06T16:15:03;40.90;29.70
3923;DHT22;1976;51.694;6.256;2022-09-06T16:17:29;40.50;29.50
3923;DHT22;1976;51.694;6.256;2022-09-06T16:19:56;40.40;29.60
3923;DHT22;1976;51.694;6.256;2022-09-06T16:22:23;40.40;30.00
3923;DHT22;1976;51.694;6.256;2022-09-06T16:24:50;40.40;30.20
3923;DHT22;1976;51.694;6.256;2022-09-06T16:27:16;40.40;30.10
3923;DHT22;1976;51.694;6.256;2022-09-06T16:29:41;40.40;30.20
3923;DHT22;1976;51.694;6.256;2022-09-06T16:32:07;40.20;30.90
3923;DHT22;1976;51.694;6.256;2022-09-06T16:34:34;40.00;30.60
3923;DHT22;1976;51.694;6.256;2022-09-06T16:37:02;39.70;30.60
3923;DHT22;1976;51.694;6.256;2022-09-06T16:39:32;39.40;31.00
3923;DHT22;1976;51.694;6.256;2022-09-06T16:41:58;39.00;31.40
3923;DHT22;1976;51.694;6.256;2022-09-06T16:46:52;38.20;33.20
3923;DHT22;1976;51.694;6.256;2022-09-06T16:49:18;37.70;34.10
3923;DHT22;1976;51.694;6.256;2022-09-06T16:51:45;37.20;35.10
3923;DHT22;1976;51.694;6.256;2022-09-06T16:54:12;36.70;35.60
3923;DHT22;1976;51.694;6.256;2022-09-06T16:56:39;36.20;36.30
3923;DHT22;1976;51.694;6.256;2022-09-06T16:59:07;35.90;36.90
3923;DHT22;1976;51.694;6.256;2022-09-06T17:01:35;35.60;37.70
3923;DHT22;1976;51.694;6.256;2022-09-06T17:04:02;35.30;38.00
3923;DHT22;1976;51.694;6.256;2022-09-06T17:06:29;35.00;38.30
3923;DHT22;1976;51.694;6.256;2022-09-06T17:08:55;34.70;38.80
3923;DHT22;1976;51.694;6.256;2022-09-06T17:11:23;34.40;39.20
3923;DHT22;1976;51.694;6.256;2022-09-06T17:13:50;34.20;39.50
3923;DHT22;1976;51.694;6.256;2022-09-06T17:16:17;33.90;39.80
3923;DHT22;1976;51.694;6.256;2022-09-06T17:19:03;33.70;40.30
3923;DHT22;1976;51.694;6.256;2022-09-06T17:21:29;33.50;40.80
3923;DHT22;1976;51.694;6.256;2022-09-06T17:23:55;33.40;40.90
3923;DHT22;1976;51.694;6.256;2022-09-06T17:26:23;33.20;41.30
3923;DHT22;1976;51.694;6.256;2022-09-06T17:31:16;32.90;41.70
3923;DHT22;1976;51.694;6.256;2022-09-06T17:38:42;32.50;42.40
3923;DHT22;1976;51.694;6.256;2022-09-06T17:41:44;32.30;42.70
3923;DHT22;1976;51.694;6.256;2022-09-06T17:44:12;32.10;42.80
3923;DHT22;1976;51.694;6.256;2022-09-06T17:49:04;31.90;43.60
3923;DHT22;1976;51.694;6.256;2022-09-06T17:51:31;31.90;44.10
3923;DHT22;1976;51.694;6.256;2022-09-06T17:53:57;31.80;44.40
3923;DHT22;1976;51.694;6.256;2022-09-06T17:56:23;31.70;44.80
3923;DHT22;1976;51.694;6.256;2022-09-06T18:01:18;31.50;45.50
3923;DHT22;1976;51.694;6.256;2022-09-06T18:03:44;31.30;45.70
3923;DHT22;1976;51.694;6.256;2022-09-06T18:06:13;31.20;45.90
3923;DHT22;1976;51.694;6.256;2022-09-06T18:08:41;31.10;46.10
3923;DHT22;1976;51.694;6.256;2022-09-06T18:11:16;31.00;46.60
3923;DHT22;1976;51.694;6.256;2022-09-06T18:13:43;30.80;46.80
3923;DHT22;1976;51.694;6.256;2022-09-06T18:16:10;30.70;47.20
3923;DHT22;1976;51.694;6.256;2022-09-06T18:18:36;30.60;47.80
3923;DHT22;1976;51.694;6.256;2022-09-06T18:21:03;30.50;48.30
3923;DHT22;1976;51.694;6.256;2022-09-06T18:23:32;30.40;48.60
3923;DHT22;1976;51.694;6.256;2022-09-06T18:26:03;30.30;48.90